Terminal Aerodrome Forecast
Issued by NWS

Home | Current Version | Previous Version | Text Only | Print | Product List | Glossary On
Versions: 1 2 3 4 5 6 7 8 9 10 11 12 13 14 15 16 17 18 19
000
FTUS41 KPBZ 310100 AAA
TAFHLG
TAF AMD
KHLG 310106Z 3101/3124 26005KT P6SM BKN080
     FM310900 16006KT 6SM -RA BKN035
     FM311300 19010KT 6SM -RA OVC035
     FM311900 28012G22KT P6SM OVC025=

USA.gov is the U.S. government's official web portal to all federal, state and local government web resources and services.